Time;durP1;ratioP1;P1;durP2;ratioP2;P2;SDS_P1;SDS_P2;PMS_P1;PMS_P2;Temp;Humidity;BMP_temperature;BMP_pressure;BME280_temperature;BME280_humidity;BME280_pressure;Samples;Min_cycle;Max_cycle;Signal;HPM_P1;HPM_P2
2022/11/22 00:01:33;;;;;;;6.15;1.73;;;9.60;99.90;;;;;;4972320;28;20051;-75
2022/11/22 00:04:00;;;;;;;7.45;2.03;;;9.70;99.90;;;;;;4972206;28;20047;-76
2022/11/22 00:06:27;;;;;;;6.13;1.67;;;9.60;99.90;;;;;;4970317;28;20046;-75
2022/11/22 00:08:55;;;;;;;6.65;2.08;;;9.70;99.90;;;;;;4969326;28;20038;-76
2022/11/22 00:11:22;;;;;;;7.25;2.13;;;9.70;99.90;;;;;;4976041;28;20399;-75
2022/11/22 00:13:49;;;;;;;9.05;2.03;;;9.60;99.90;;;;;;4977769;28;20045;-75
2022/11/22 00:16:16;;;;;;;10.20;2.03;;;9.70;99.90;;;;;;4959433;28;20047;-75
2022/11/22 00:18:43;;;;;;;6.82;2.08;;;9.70;99.90;;;;;;4979516;28;20309;-75
2022/11/22 00:21:10;;;;;;;5.47;1.70;;;9.70;99.90;;;;;;4972222;28;20077;-75
2022/11/22 00:23:37;;;;;;;6.20;1.88;;;9.70;99.90;;;;;;4957087;28;20165;-76
2022/11/22 00:26:10;;;;;;;6.88;2.30;;;9.70;99.90;;;;;;4983301;28;20059;-76
2022/11/22 00:28:37;;;;;;;7.10;2.15;;;9.70;99.90;;;;;;4960051;28;20050;-76
2022/11/22 00:31:04;;;;;;;6.80;2.10;;;9.70;99.90;;;;;;4978419;28;20069;-76
2022/11/22 00:33:31;;;;;;;7.95;2.08;;;9.70;99.90;;;;;;4965574;28;20503;-76
2022/11/22 00:35:58;;;;;;;6.32;1.70;;;9.70;99.90;;;;;;4966974;28;20554;-75
2022/11/22 00:38:25;;;;;;;8.25;2.65;;;9.70;99.90;;;;;;4985082;28;20125;-75
2022/11/22 00:40:52;;;;;;;7.80;2.17;;;9.70;99.90;;;;;;4977388;28;20122;-76
2022/11/22 00:43:20;;;;;;;8.13;2.28;;;9.70;99.90;;;;;;4982518;28;20046;-76
2022/11/22 00:45:47;;;;;;;7.47;1.98;;;9.70;99.90;;;;;;4980419;28;20503;-76
2022/11/22 00:48:14;;;;;;;7.30;2.25;;;9.90;99.90;;;;;;4971061;28;20399;-76
2022/11/22 00:50:41;;;;;;;7.07;2.30;;;9.70;99.90;;;;;;4975862;28;20483;-76
2022/11/22 00:53:08;;;;;;;6.10;2.35;;;9.70;99.90;;;;;;4980054;28;20046;-76
2022/11/22 00:55:35;;;;;;;5.65;1.80;;;9.70;99.90;;;;;;4978493;28;20042;-76
2022/11/22 00:58:02;;;;;;;7.90;2.45;;;9.70;99.90;;;;;;4977204;28;20070;-75
2022/11/22 01:00:30;;;;;;;7.97;2.00;;;9.70;99.90;;;;;;4987268;28;20744;-75
2022/11/22 01:02:57;;;;;;;5.72;2.05;;;9.60;99.90;;;;;;4972997;28;20042;-75
2022/11/22 01:05:24;;;;;;;5.13;1.98;;;9.60;99.90;;;;;;4972836;28;20070;-76
2022/11/22 01:07:51;;;;;;;6.85;2.00;;;9.60;99.90;;;;;;4972748;28;20455;-75
2022/11/22 01:10:18;;;;;;;6.38;1.90;;;9.70;99.90;;;;;;4966519;28;20078;-75
2022/11/22 01:12:45;;;;;;;7.38;2.78;;;9.70;99.90;;;;;;4972830;28;20122;-75
2022/11/22 01:15:12;;;;;;;5.63;2.22;;;9.70;99.90;;;;;;4978507;28;20046;-75
2022/11/22 01:17:40;;;;;;;5.47;1.98;;;9.70;99.90;;;;;;4973194;28;20557;-75
2022/11/22 01:20:09;;;;;;;5.78;2.20;;;9.70;99.90;;;;;;4971800;28;20491;-76
2022/11/22 01:22:36;;;;;;;7.15;2.03;;;9.70;99.90;;;;;;4972385;28;20590;-76
2022/11/22 01:25:03;;;;;;;7.65;1.80;;;9.70;99.90;;;;;;4972292;28;20054;-76
2022/11/22 01:27:29;;;;;;;7.20;2.40;;;9.70;99.90;;;;;;4972210;28;20046;-76
2022/11/22 01:29:56;;;;;;;10.77;2.03;;;9.70;99.90;;;;;;4968045;28;20042;-75
2022/11/22 01:32:23;;;;;;;9.10;2.35;;;9.70;99.90;;;;;;4969708;28;20487;-75
2022/11/22 01:34:52;;;;;;;5.32;1.85;;;9.70;99.90;;;;;;4980335;28;20048;-75
2022/11/22 01:37:19;;;;;;;4.85;1.90;;;9.70;99.90;;;;;;4977226;28;20415;-76
2022/11/22 01:39:46;;;;;;;7.45;2.40;;;9.70;99.90;;;;;;4984901;28;20125;-76
2022/11/22 01:42:13;;;;;;;7.07;2.35;;;9.70;99.90;;;;;;4982829;28;20046;-77
2022/11/22 01:44:41;;;;;;;8.63;2.33;;;9.70;99.90;;;;;;4981397;28;20038;-76
2022/11/22 01:47:12;;;;;;;7.07;2.20;;;9.70;99.90;;;;;;4974560;28;20561;-76
2022/11/22 01:49:41;;;;;;;7.60;2.53;;;9.70;99.90;;;;;;4967768;28;20050;-75
2022/11/22 01:52:13;;;;;;;7.28;2.00;;;9.70;99.90;;;;;;4981329;28;20125;-76
2022/11/22 01:54:42;;;;;;;7.57;2.20;;;9.60;99.90;;;;;;4977372;28;20096;-75
2022/11/22 01:57:12;;;;;;;9.23;2.60;;;9.60;99.90;;;;;;4972340;28;20062;-75
2022/11/22 01:59:44;;;;;;;9.73;2.80;;;9.70;99.90;;;;;;4977101;28;20046;-76
2022/11/22 02:02:11;;;;;;;;;;;9.70;99.90;;;;;;4975841;28;20313;-76
2022/11/22 02:04:38;;;;;;;7.15;2.28;;;9.70;99.90;;;;;;4978446;28;19922;-76
2022/11/22 02:07:12;;;;;;;7.13;2.70;;;9.70;99.90;;;;;;4973853;28;20047;-76
2022/11/22 02:09:41;;;;;;;8.13;2.85;;;9.70;99.90;;;;;;4972284;28;20066;-76
2022/11/22 02:12:09;;;;;;;5.90;2.60;;;9.70;99.90;;;;;;4976350;28;20054;-76
2022/11/22 02:14:36;;;;;;;10.05;3.38;;;9.70;99.90;;;;;;4977165;28;20078;-75
2022/11/22 02:17:03;;;;;;;10.27;3.25;;;9.70;99.90;;;;;;4976509;28;20157;-75
2022/11/22 02:19:38;;;;;;;8.93;2.90;;;9.70;99.90;;;;;;4985494;28;20039;-76
2022/11/22 02:22:18;;;;;;;7.32;2.67;;;9.70;99.90;;;;;;4951946;28;20051;-76
2022/11/22 02:24:50;;;;;;;12.80;3.10;;;9.80;99.90;;;;;;4979335;28;20061;-76
2022/11/22 02:27:19;;;;;;;10.00;3.20;;;9.70;99.90;;;;;;4979370;28;20046;-76
2022/11/22 02:29:46;;;;;;;7.93;2.75;;;9.70;99.90;;;;;;4978956;28;20085;-76
2022/11/22 02:32:13;;;;;;;6.95;2.47;;;9.80;99.90;;;;;;4976505;28;20073;-75
2022/11/22 02:34:44;;;;;;;11.30;2.78;;;9.80;99.90;;;;;;4973847;28;20077;-76
2022/11/22 02:37:12;;;;;;;6.80;2.40;;;9.80;99.90;;;;;;4966502;28;20041;-75
2022/11/22 02:39:47;;;;;;;11.95;2.55;;;9.80;99.90;;;;;;4967041;28;20046;-76
2022/11/22 02:42:15;;;;;;;7.95;2.33;;;9.80;99.90;;;;;;4954774;28;20051;-76
2022/11/22 02:44:43;;;;;;;7.28;2.50;;;9.80;99.90;;;;;;4974609;28;20035;-76
2022/11/22 02:47:11;;;;;;;7.10;2.38;;;9.80;99.90;;;;;;4960334;28;20050;-76
2022/11/22 02:49:38;;;;;;;7.88;2.50;;;9.80;99.90;;;;;;4960604;28;20053;-75
2022/11/22 02:52:05;;;;;;;9.73;2.50;;;9.80;99.90;;;;;;4972669;28;20389;-76
2022/11/22 02:54:32;;;;;;;9.60;2.65;;;9.80;99.90;;;;;;4973426;28;20046;-76
2022/11/22 02:56:59;;;;;;;6.20;2.50;;;9.80;99.90;;;;;;4973580;28;20107;-76
2022/11/22 02:59:26;;;;;;;12.13;2.72;;;9.70;99.90;;;;;;4971049;28;20126;-75
2022/11/22 03:01:54;;;;;;;13.73;2.70;;;9.70;99.90;;;;;;4970162;28;20075;-76
2022/11/22 03:04:27;;;;;;;11.07;2.85;;;9.70;99.90;;;;;;4970348;28;20047;-75
2022/11/22 03:06:56;;;;;;;15.32;3.10;;;9.70;99.90;;;;;;4964298;28;20054;-75
2022/11/22 03:09:23;;;;;;;13.00;2.65;;;9.70;99.90;;;;;;4970255;28;20407;-76
2022/11/22 03:11:50;;;;;;;9.40;2.50;;;9.70;99.90;;;;;;4970133;28;20563;-75
2022/11/22 03:14:17;;;;;;;10.75;2.78;;;9.70;99.90;;;;;;4970677;28;20053;-75
2022/11/22 03:16:46;;;;;;;13.55;2.70;;;9.70;99.90;;;;;;4969836;28;20145;-76
2022/11/22 03:19:14;;;;;;;9.98;2.65;;;9.70;99.90;;;;;;4970540;28;20046;-76
2022/11/22 03:21:42;;;;;;;9.23;2.65;;;9.70;99.90;;;;;;4970200;28;20077;-76
2022/11/22 03:24:10;;;;;;;12.75;2.97;;;9.70;99.90;;;;;;4970219;28;20369;-76
2022/11/22 03:26:37;;;;;;;11.55;2.75;;;9.70;99.90;;;;;;4969773;28;20042;-76
2022/11/22 03:29:04;;;;;;;9.15;2.60;;;9.70;99.90;;;;;;4958699;28;20042;-76
2022/11/22 03:31:31;;;;;;;10.68;2.25;;;9.70;99.90;;;;;;4962506;28;20046;-76
2022/11/22 03:33:58;;;;;;;10.27;2.70;;;9.70;99.90;;;;;;4969885;28;20050;-76
2022/11/22 03:36:27;;;;;;;12.75;2.80;;;9.70;99.90;;;;;;4970110;28;20564;-76
2022/11/22 03:38:53;;;;;;;7.82;2.83;;;9.70;99.90;;;;;;4977438;28;20042;-75
2022/11/22 03:41:20;;;;;;;9.32;2.72;;;9.60;99.90;;;;;;4976887;28;20078;-75
2022/11/22 03:43:47;;;;;;;8.77;2.85;;;9.70;99.90;;;;;;4971397;28;20136;-75
2022/11/22 03:46:15;;;;;;;9.07;2.55;;;9.60;99.90;;;;;;4975847;28;20055;-75
2022/11/22 03:48:42;;;;;;;8.82;2.55;;;9.60;99.90;;;;;;4967667;28;20075;-75
2022/11/22 03:51:09;;;;;;;9.13;2.55;;;9.60;99.90;;;;;;4979553;28;20454;-75
2022/11/22 03:53:38;;;;;;;12.82;3.20;;;9.60;99.90;;;;;;4981187;28;20499;-75
2022/11/22 03:56:05;;;;;;;13.77;2.97;;;9.50;99.90;;;;;;4970441;28;20062;-75
2022/11/22 03:58:33;;;;;;;8.82;2.58;;;9.50;99.90;;;;;;4969970;28;20073;-76
2022/11/22 04:01:00;;;;;;;11.20;2.97;;;9.50;99.90;;;;;;4982974;23;20047;-77
2022/11/22 04:03:27;;;;;;;10.13;2.70;;;9.50;99.90;;;;;;4964258;28;20126;-77
2022/11/22 04:05:54;;;;;;;9.13;2.28;;;9.50;99.90;;;;;;4965931;28;20082;-77
2022/11/22 04:08:21;;;;;;;10.23;3.17;;;9.40;99.90;;;;;;4970760;28;20138;-77
2022/11/22 04:10:50;;;;;;;11.85;2.80;;;9.40;99.90;;;;;;4972153;28;20748;-77
2022/11/22 04:13:17;;;;;;;11.23;2.60;;;9.40;99.90;;;;;;4965041;28;20053;-77
2022/11/22 04:15:43;;;;;;;13.05;2.58;;;9.40;99.90;;;;;;4965715;28;20526;-77
2022/11/22 04:18:10;;;;;;;10.63;3.45;;;9.40;99.90;;;;;;4968160;28;20039;-77
2022/11/22 04:23:24;;;;;;;10.38;3.03;;;9.40;99.90;;;;;;4965235;28;20121;-77
2022/11/22 04:25:53;;;;;;;12.80;2.60;;;9.30;99.90;;;;;;4969789;28;20511;-77
2022/11/22 04:28:21;;;;;;;13.13;3.17;;;9.30;99.90;;;;;;4969244;28;20047;-77
2022/11/22 04:33:33;;;;;;;10.02;2.50;;;9.30;99.90;;;;;;4966728;28;20037;-77
2022/11/22 04:36:00;;;;;;;7.93;2.40;;;9.30;99.90;;;;;;4969841;28;20142;-77
2022/11/22 04:38:27;;;;;;;13.00;2.45;;;9.30;99.90;;;;;;4965213;28;20042;-77
2022/11/22 04:40:55;;;;;;;8.75;2.50;;;9.30;99.90;;;;;;4960851;28;20069;-77
2022/11/22 04:46:08;;;;;;;13.18;3.10;;;9.30;99.90;;;;;;4968377;28;20046;-77
2022/11/22 04:48:36;;;;;;;15.13;3.33;;;9.30;99.90;;;;;;4963019;28;20047;-77
2022/11/22 04:53:47;;;;;;;21.02;3.13;;;9.30;99.90;;;;;;4962000;28;20047;-77
2022/11/22 04:56:16;;;;;;;17.20;2.85;;;9.20;99.90;;;;;;4944654;28;20503;-77
2022/11/22 04:58:43;;;;;;;10.70;2.28;;;9.20;99.90;;;;;;4969798;28;20089;-77
2022/11/22 05:01:10;;;;;;;14.80;3.63;;;9.30;99.90;;;;;;4970258;28;20415;-77
2022/11/22 05:03:36;;;;;;;12.13;2.88;;;9.20;99.90;;;;;;4972955;28;20057;-77
2022/11/22 05:06:05;;;;;;;11.20;2.60;;;9.20;99.90;;;;;;4972650;28;20042;-77
2022/11/22 05:08:32;;;;;;;16.52;2.70;;;9.20;99.90;;;;;;4963218;28;20086;-77
2022/11/22 05:10:59;;;;;;;13.25;2.67;;;9.20;99.90;;;;;;4946043;28;20134;-77
2022/11/22 05:13:32;;;;;;;13.98;2.72;;;9.20;99.90;;;;;;4960710;28;20046;-77
2022/11/22 05:16:00;;;;;;;10.75;2.63;;;9.20;99.90;;;;;;4968652;28;20845;-79
2022/11/22 05:18:28;;;;;;;15.05;3.22;;;9.20;99.90;;;;;;4962229;28;20043;-77
2022/11/22 05:20:55;;;;;;;8.82;2.35;;;9.20;99.90;;;;;;4965901;28;20047;-77
2022/11/22 05:26:08;;;;;;;17.67;2.75;;;9.10;99.90;;;;;;4967498;28;20121;-79
2022/11/22 05:28:38;;;;;;;10.95;2.83;;;9.10;99.90;;;;;;4968815;28;20054;-79
2022/11/22 05:31:09;;;;;;;14.40;2.78;;;9.10;99.90;;;;;;4972024;28;20125;-79
2022/11/22 05:33:37;;;;;;;10.52;3.28;;;9.10;99.90;;;;;;4960426;28;20049;-79
2022/11/22 05:36:05;;;;;;;11.23;2.25;;;9.10;99.90;;;;;;4967402;28;20042;-79
2022/11/22 05:38:34;;;;;;;12.95;2.50;;;9.10;99.90;;;;;;4970872;28;20042;-78
2022/11/22 05:41:01;;;;;;;14.43;2.70;;;9.10;99.90;;;;;;4971792;28;20038;-78
2022/11/22 05:43:28;;;;;;;16.73;3.38;;;9.00;99.90;;;;;;4961947;28;20051;-78
2022/11/22 05:45:56;;;;;;;12.98;2.40;;;9.10;99.90;;;;;;4967120;28;20414;-78
2022/11/22 05:48:23;;;;;;;14.60;2.80;;;9.00;99.90;;;;;;4965640;28;20547;-78
2022/11/22 05:50:50;;;;;;;14.23;2.72;;;9.10;99.90;;;;;;4947159;28;20559;-78
2022/11/22 05:53:17;;;;;;;13.00;2.53;;;9.00;99.90;;;;;;4967939;28;20067;-78
2022/11/22 05:55:44;;;;;;;10.57;2.17;;;9.10;99.90;;;;;;4963539;28;20448;-78
2022/11/22 05:58:11;;;;;;;14.18;2.25;;;9.00;99.90;;;;;;4962969;28;20046;-76
2022/11/22 06:00:38;;;;;;;15.15;2.75;;;9.00;99.90;;;;;;4967239;28;20054;-77
2022/11/22 06:03:06;;;;;;;14.88;2.50;;;9.00;99.90;;;;;;4966474;28;20046;-77
2022/11/22 06:05:33;;;;;;;22.85;3.47;;;9.00;99.90;;;;;;4962633;28;20055;-77
2022/11/22 06:08:01;;;;;;;11.65;2.30;;;9.00;99.90;;;;;;4963428;28;20054;-78
2022/11/22 06:10:33;;;;;;;13.25;2.47;;;9.00;99.90;;;;;;4964518;28;20035;-79
2022/11/22 06:13:00;;;;;;;13.75;3.10;;;9.00;99.90;;;;;;4963881;28;20585;-78
2022/11/22 06:15:26;;;;;;;10.82;3.35;;;8.90;99.90;;;;;;4965774;28;20122;-79
2022/11/22 06:17:53;;;;;;;15.80;2.80;;;9.00;99.90;;;;;;4961631;28;20054;-79
2022/11/22 06:20:22;;;;;;;17.00;2.90;;;8.90;99.90;;;;;;4969419;28;20070;-80
2022/11/22 06:22:49;;;;;;;13.48;2.75;;;8.90;99.90;;;;;;4963760;28;20051;-80
2022/11/22 06:25:16;;;;;;;14.52;3.13;;;8.90;99.90;;;;;;4951378;28;20039;-80
2022/11/22 06:27:42;;;;;;;13.57;3.33;;;8.90;99.90;;;;;;4969808;28;20129;-79
2022/11/22 06:30:10;;;;;;;13.85;2.72;;;8.90;99.90;;;;;;4969594;28;20066;-79
2022/11/22 06:32:37;;;;;;;14.07;2.65;;;8.90;99.90;;;;;;4967199;28;20173;-79
2022/11/22 06:35:04;;;;;;;14.45;3.45;;;8.80;99.90;;;;;;4966662;28;20126;-78
2022/11/22 06:37:33;;;;;;;12.63;2.88;;;8.80;99.90;;;;;;4951343;28;20053;-79
2022/11/22 06:40:00;;;;;;;16.50;2.90;;;8.80;99.90;;;;;;4968975;28;20046;-79
2022/11/22 06:42:27;;;;;;;12.50;3.20;;;8.80;99.90;;;;;;4959378;28;20105;-79
2022/11/22 06:44:53;;;;;;;12.50;2.95;;;8.80;99.90;;;;;;4962451;28;20487;-79
2022/11/22 06:47:20;;;;;;;14.13;2.78;;;8.80;99.90;;;;;;4967463;28;20076;-79
2022/11/22 06:49:47;;;;;;;17.20;3.63;;;8.80;99.90;;;;;;4958287;28;20043;-79
2022/11/22 06:52:14;;;;;;;19.75;3.45;;;8.80;99.90;;;;;;4969217;28;20529;-79
2022/11/22 06:54:42;;;;;;;14.95;3.20;;;8.80;99.90;;;;;;4963965;28;20051;-79
2022/11/22 06:57:12;;;;;;;14.65;3.88;;;8.70;99.90;;;;;;4971471;28;20043;-79
2022/11/22 06:59:39;;;;;;;12.27;3.17;;;8.80;99.90;;;;;;4964629;28;20113;-79
2022/11/22 07:02:06;;;;;;;12.27;3.25;;;8.80;99.90;;;;;;4968628;28;20069;-79
2022/11/22 07:04:33;;;;;;;16.15;2.58;;;8.80;99.90;;;;;;4969936;28;20074;-79
2022/11/22 07:07:00;;;;;;;13.95;3.42;;;8.80;99.90;;;;;;4982768;28;20055;-79
2022/11/22 07:09:27;;;;;;;18.55;3.80;;;8.80;99.90;;;;;;4961832;28;20162;-79
2022/11/22 07:11:55;;;;;;;20.27;3.88;;;8.70;99.90;;;;;;4965974;28;20085;-79
2022/11/22 07:14:22;;;;;;;16.55;3.13;;;8.80;99.90;;;;;;4970947;28;20117;-79
2022/11/22 07:16:49;;;;;;;19.67;3.75;;;8.70;99.90;;;;;;4964951;28;20129;-79
2022/11/22 07:19:16;;;;;;;15.30;3.53;;;8.80;99.90;;;;;;4969282;28;20042;-79
2022/11/22 07:21:43;;;;;;;10.50;3.00;;;8.80;99.90;;;;;;4969529;28;20045;-79
2022/11/22 07:24:11;;;;;;;17.70;3.25;;;8.80;99.90;;;;;;4969615;28;20057;-79
2022/11/22 07:26:38;;;;;;;17.90;3.30;;;8.80;99.90;;;;;;4971291;28;20066;-79
2022/11/22 07:29:06;;;;;;;17.60;2.90;;;8.80;99.90;;;;;;4970230;28;20061;-79
2022/11/22 07:31:33;;;;;;;17.63;3.13;;;8.80;99.90;;;;;;4970964;28;20039;-79
2022/11/22 07:34:00;;;;;;;12.25;2.75;;;8.80;99.90;;;;;;4966631;28;20049;-80
2022/11/22 07:36:29;;;;;;;16.38;3.70;;;8.80;99.90;;;;;;4966143;28;20043;-79
2022/11/22 07:38:56;;;;;;;15.77;3.25;;;8.80;99.90;;;;;;4968122;28;20050;-77
2022/11/22 07:41:23;;;;;;;14.20;2.90;;;8.80;99.90;;;;;;4970621;28;20043;-78
2022/11/22 07:43:51;;;;;;;15.13;3.00;;;8.70;99.90;;;;;;4965439;28;20133;-79
2022/11/22 07:46:25;;;;;;;13.90;2.63;;;8.70;99.90;;;;;;4968531;28;20045;-80
2022/11/22 07:48:51;;;;;;;12.00;2.33;;;8.80;99.90;;;;;;4964772;28;20082;-80
2022/11/22 07:51:19;;;;;;;15.52;2.40;;;8.80;99.90;;;;;;4946936;28;20039;-80
2022/11/22 07:53:46;;;;;;;14.63;2.50;;;8.80;99.90;;;;;;4966316;28;20121;-79
2022/11/22 07:56:13;;;;;;;10.18;2.80;;;8.80;99.90;;;;;;4950832;28;20157;-80
2022/11/22 07:58:40;;;;;;;13.02;2.45;;;8.80;99.90;;;;;;4962754;28;20579;-79
2022/11/22 08:01:07;;;;;;;14.25;2.80;;;8.80;99.90;;;;;;4967119;28;20125;-78
2022/11/22 08:03:36;;;;;;;18.00;2.33;;;8.80;99.90;;;;;;4960996;28;20122;-79
2022/11/22 08:06:04;;;;;;;13.20;2.55;;;8.90;99.90;;;;;;4958221;28;20043;-79
2022/11/22 08:08:32;;;;;;;12.45;2.78;;;8.90;99.90;;;;;;4969909;28;20046;-79
2022/11/22 08:10:59;;;;;;;13.30;2.28;;;8.90;99.90;;;;;;4945601;28;20130;-79
2022/11/22 08:13:26;;;;;;;14.18;2.20;;;8.90;99.90;;;;;;4969784;28;20054;-79
2022/11/22 08:15:54;;;;;;;15.43;3.00;;;8.90;99.90;;;;;;4967261;28;20574;-79
2022/11/22 08:18:21;;;;;;;13.25;2.30;;;9.00;99.90;;;;;;4939700;29;20509;-78
2022/11/22 08:20:49;;;;;;;12.05;2.35;;;9.00;99.90;;;;;;4934621;29;20567;-78
2022/11/22 08:23:16;;;;;;;14.77;3.10;;;9.10;99.90;;;;;;4967132;28;20500;-78
2022/11/22 08:25:43;;;;;;;8.70;2.25;;;9.00;99.90;;;;;;4963116;28;20131;-78
2022/11/22 08:28:10;;;;;;;14.68;2.33;;;9.00;99.90;;;;;;4963672;28;20074;-78
2022/11/22 08:30:37;;;;;;;10.10;2.50;;;9.00;99.90;;;;;;4945069;28;20582;-79
2022/11/22 08:33:04;;;;;;;16.35;2.60;;;9.10;99.90;;;;;;4965250;28;20135;-78
2022/11/22 08:35:31;;;;;;;13.23;2.63;;;9.10;99.90;;;;;;4965782;28;20122;-78
2022/11/22 08:37:59;;;;;;;10.18;2.25;;;9.10;99.90;;;;;;4968951;28;20147;-78
2022/11/22 08:40:26;;;;;;;10.05;2.13;;;9.20;99.90;;;;;;4969761;28;20043;-78
2022/11/22 08:42:55;;;;;;;12.00;2.08;;;9.20;99.90;;;;;;4967355;28;20122;-78
2022/11/22 08:45:22;;;;;;;16.30;2.45;;;9.10;99.90;;;;;;4969201;28;20047;-78
2022/11/22 08:47:49;;;;;;;9.20;2.08;;;9.10;99.90;;;;;;4972216;28;20129;-80
2022/11/22 08:50:16;;;;;;;12.30;2.25;;;9.20;99.90;;;;;;4962997;28;20071;-78
2022/11/22 08:52:43;;;;;;;10.27;2.05;;;9.20;99.90;;;;;;4956118;28;21058;-78
2022/11/22 08:55:12;;;;;;;9.32;2.10;;;9.20;99.90;;;;;;4959948;28;20057;-79
2022/11/22 08:57:39;;;;;;;11.70;2.35;;;9.20;99.90;;;;;;4963683;28;20107;-78
2022/11/22 09:00:07;;;;;;;11.20;2.10;;;9.20;99.90;;;;;;4959873;28;20129;-79
2022/11/22 09:02:34;;;;;;;12.38;2.83;;;9.20;99.90;;;;;;4946369;28;20101;-78
2022/11/22 09:05:01;;;;;;;11.75;2.40;;;9.20;99.90;;;;;;4970192;28;20067;-78
2022/11/22 09:07:29;;;;;;;8.45;2.00;;;9.30;99.90;;;;;;4972751;28;20039;-79
2022/11/22 09:09:56;;;;;;;10.13;1.63;;;9.30;99.90;;;;;;4964591;28;20057;-78
2022/11/22 09:12:24;;;;;;;8.20;1.85;;;9.20;99.90;;;;;;4962806;28;20047;-78
2022/11/22 09:14:51;;;;;;;11.70;2.03;;;9.30;99.90;;;;;;4970497;28;20534;-79
2022/11/22 09:17:18;;;;;;;9.80;1.73;;;9.30;99.90;;;;;;4965154;28;20053;-78
2022/11/22 09:19:45;;;;;;;11.13;1.90;;;9.30;99.90;;;;;;4965536;28;20077;-77
2022/11/22 09:22:12;;;;;;;10.68;2.00;;;9.40;99.90;;;;;;4965495;28;20046;-77
2022/11/22 09:24:39;;;;;;;10.20;1.80;;;9.40;99.90;;;;;;4954467;28;20169;-78
2022/11/22 09:27:06;;;;;;;7.78;2.00;;;9.40;99.90;;;;;;4961144;28;20086;-76
2022/11/22 09:29:35;;;;;;;8.25;1.70;;;9.40;99.90;;;;;;4968318;28;20502;-76
2022/11/22 09:32:02;;;;;;;12.82;1.92;;;9.40;99.90;;;;;;4965425;28;20053;-76
2022/11/22 09:34:32;;;;;;;9.63;2.17;;;9.50;99.90;;;;;;4971258;28;20057;-75
2022/11/22 09:36:59;;;;;;;8.50;2.15;;;9.50;99.90;;;;;;4967055;28;20086;-76
2022/11/22 09:39:26;;;;;;;10.23;1.92;;;9.50;99.90;;;;;;4961333;28;20407;-76
2022/11/22 09:42:30;;;;;;;8.40;2.00;;;9.50;99.90;;;;;;4969548;28;20073;-76
2022/11/22 09:45:22;;;;;;;9.88;1.92;;;9.50;99.90;;;;;;4950613;28;20308;-76
2022/11/22 09:47:51;;;;;;;;;;;9.50;99.90;;;;;;4963068;28;20066;-77
2022/11/22 09:50:24;;;;;;;10.80;1.88;;;9.50;99.90;;;;;;4964354;28;19930;-76
2022/11/22 09:52:54;;;;;;;9.07;1.98;;;9.50;99.90;;;;;;4965825;28;20074;-76
2022/11/22 09:55:25;;;;;;;12.70;2.30;;;9.50;99.90;;;;;;4962151;28;20069;-76
2022/11/22 09:58:11;;;;;;;10.63;1.98;;;9.50;99.90;;;;;;4968346;28;20043;-76
2022/11/22 10:00:40;;;;;;;13.32;1.73;;;9.50;99.90;;;;;;4962169;28;20582;-78
2022/11/22 10:03:13;;;;;;;8.70;1.83;;;9.60;99.90;;;;;;4982193;23;20039;-76
2022/11/22 10:05:50;;;;;;;7.53;1.80;;;9.60;99.90;;;;;;4970285;28;20105;-76
2022/11/22 10:08:27;;;;;;;7.28;1.90;;;9.70;99.90;;;;;;4949413;28;20420;-76
2022/11/22 10:10:56;;;;;;;14.43;2.13;;;9.70;99.90;;;;;;4966913;28;20142;-76
2022/11/22 10:13:30;;;;;;;11.38;2.55;;;9.70;99.90;;;;;;4933831;29;20059;-76
2022/11/22 10:24:28;;;;;;;10.77;2.10;;;9.80;99.90;;;;;;4947056;29;20106;-76
2022/11/22 10:26:58;;;;;;;9.25;1.75;;;9.80;99.90;;;;;;4942348;29;20709;-76
2022/11/22 10:29:34;;;;;;;14.95;1.98;;;9.80;99.90;;;;;;4950386;29;20043;-76
2022/11/22 10:32:08;;;;;;;7.82;2.00;;;9.90;99.90;;;;;;4944716;28;20125;-76
2022/11/22 10:34:44;;;;;;;8.60;1.63;;;9.90;99.90;;;;;;4948170;29;20071;-76
2022/11/22 10:37:16;;;;;;;11.43;1.90;;;9.90;99.90;;;;;;4947083;29;20078;-76
2022/11/22 10:40:01;;;;;;;10.05;1.67;;;10.00;99.90;;;;;;4950398;28;20054;-76
2022/11/22 10:42:41;;;;;;;11.43;1.55;;;10.00;99.90;;;;;;4946091;28;20087;-76
2022/11/22 10:45:14;;;;;;;7.57;1.70;;;10.00;99.90;;;;;;4944187;28;20051;-76
2022/11/22 10:47:51;;;;;;;10.10;2.42;;;10.00;99.90;;;;;;4948016;28;20125;-76
2022/11/22 10:50:22;;;;;;;9.18;1.90;;;9.90;99.90;;;;;;4948405;28;20051;-76
2022/11/22 10:52:59;;;;;;;5.53;1.58;;;9.90;99.90;;;;;;4950759;28;20078;-76
2022/11/22 10:55:42;;;;;;;7.13;1.50;;;10.00;99.90;;;;;;4950884;29;20475;-76
2022/11/22 10:58:15;;;;;;;5.75;1.40;;;10.00;99.90;;;;;;4944128;28;20058;-76
2022/11/22 11:00:46;;;;;;;9.00;2.25;;;10.10;99.90;;;;;;4945412;28;20098;-76
2022/11/22 11:03:26;;;;;;;9.32;1.88;;;10.00;99.90;;;;;;4948399;28;20039;-76
2022/11/22 11:05:56;;;;;;;10.77;2.13;;;10.00;99.90;;;;;;4943346;28;20103;-76
2022/11/22 11:08:30;;;;;;;9.85;2.10;;;10.00;99.90;;;;;;4950928;29;20461;-76
2022/11/22 11:10:58;;;;;;;9.88;1.80;;;10.00;99.90;;;;;;4948869;28;20039;-76
2022/11/22 11:13:29;;;;;;;14.90;1.95;;;10.10;99.90;;;;;;4949274;28;20054;-76
2022/11/22 11:15:58;;;;;;;8.60;1.52;;;10.00;99.90;;;;;;4943999;28;20118;-76
2022/11/22 11:18:28;;;;;;;8.35;1.73;;;10.00;99.90;;;;;;4947465;28;20053;-76
2022/11/22 11:20:55;;;;;;;10.18;2.33;;;10.00;99.90;;;;;;4949746;28;20050;-75
2022/11/22 11:23:22;;;;;;;6.75;1.60;;;10.00;99.90;;;;;;4944483;28;20039;-77
2022/11/22 11:25:51;;;;;;;4.93;1.77;;;10.00;99.90;;;;;;4948922;29;20113;-76
2022/11/22 11:28:20;;;;;;;7.25;1.67;;;10.00;99.90;;;;;;4948679;28;20062;-77
2022/11/22 11:30:51;;;;;;;9.05;1.70;;;10.00;99.90;;;;;;4948052;28;20047;-76
2022/11/22 11:33:25;;;;;;;7.15;1.63;;;10.00;99.90;;;;;;4949276;28;20065;-77
2022/11/22 11:35:55;;;;;;;6.32;1.45;;;10.10;99.90;;;;;;4948262;28;20706;-76
2022/11/22 11:38:30;;;;;;;8.05;1.70;;;10.00;99.90;;;;;;4932208;29;20585;-76
2022/11/22 11:40:57;;;;;;;6.53;1.10;;;10.10;99.90;;;;;;4946807;28;20055;-76
2022/11/22 11:43:25;;;;;;;5.97;1.20;;;10.10;99.90;;;;;;4950511;29;20053;-77
2022/11/22 11:45:53;;;;;;;9.18;1.55;;;10.10;99.90;;;;;;4948873;29;20151;-76
2022/11/22 11:48:34;;;;;;;4.68;1.25;;;10.10;99.90;;;;;;4945640;29;20062;-77
2022/11/22 11:51:24;;;;;;;6.60;1.23;;;10.10;99.90;;;;;;4931387;28;20520;-77
2022/11/22 11:53:57;;;;;;;5.15;1.15;;;10.10;99.90;;;;;;4941305;29;20086;-76
2022/11/22 11:56:32;;;;;;;8.57;1.50;;;10.10;99.90;;;;;;4948637;29;20582;-76
2022/11/22 11:59:02;;;;;;;9.85;1.40;;;10.10;99.90;;;;;;4949437;29;20043;-76
2022/11/22 12:01:33;;;;;;;5.95;1.20;;;10.10;99.90;;;;;;4944125;28;20047;-76
2022/11/22 12:04:02;;;;;;;6.75;1.63;;;10.00;99.90;;;;;;4949825;29;20051;-76
2022/11/22 12:06:29;;;;;;;6.28;1.35;;;10.10;99.90;;;;;;4947582;28;20039;-76
2022/11/22 12:08:57;;;;;;;9.35;1.63;;;10.00;99.90;;;;;;4930793;29;20054;-76
2022/11/22 12:11:30;;;;;;;6.85;1.17;;;10.10;99.90;;;;;;4952077;28;20035;-76
2022/11/22 12:14:48;;;;;;;4.50;1.30;;;10.00;99.90;;;;;;4948848;29;20542;-76
2022/11/22 12:21:13;;;;;;;5.55;1.20;;;10.10;99.90;;;;;;4872078;29;20055;-76
2022/11/22 12:23:46;;;;;;;6.25;1.65;;;10.10;99.90;;;;;;4874333;29;20064;-76
2022/11/22 12:26:13;;;;;;;7.35;1.27;;;10.20;99.90;;;;;;4870086;29;20240;-77
2022/11/22 12:28:40;;;;;;;5.03;1.40;;;10.20;99.90;;;;;;4867143;29;20119;-77
2022/11/22 12:31:13;;;;;;;8.15;1.65;;;10.20;99.90;;;;;;4872130;29;20056;-77
2022/11/22 12:33:52;;;;;;;5.40;1.20;;;10.20;99.90;;;;;;4872915;29;20609;-77
2022/11/22 12:36:23;;;;;;;5.28;1.30;;;10.20;99.90;;;;;;4873950;29;20067;-77
2022/11/22 12:38:51;;;;;;;3.97;1.30;;;10.30;99.90;;;;;;4872589;29;20722;-76
2022/11/22 12:41:21;;;;;;;4.82;1.40;;;10.30;99.90;;;;;;4854608;29;20422;-79
2022/11/22 12:43:52;;;;;;;5.78;1.35;;;10.30;99.90;;;;;;4855992;29;20156;-79
2022/11/22 12:46:21;;;;;;;6.53;1.30;;;10.30;99.90;;;;;;4873130;29;20064;-79
2022/11/22 12:48:51;;;;;;;5.03;0.95;;;10.30;99.90;;;;;;4873526;29;20080;-79
2022/11/22 12:51:24;;;;;;;6.38;1.13;;;10.30;99.90;;;;;;4871422;29;20092;-78
2022/11/22 12:53:52;;;;;;;6.65;1.27;;;10.30;99.90;;;;;;4946646;29;20221;-79
2022/11/22 12:56:23;;;;;;;8.25;1.20;;;10.30;99.90;;;;;;4951813;29;20074;-79
2022/11/22 12:59:37;;;;;;;6.05;1.20;;;10.40;99.90;;;;;;4949647;29;20093;-79
2022/11/22 13:02:12;;;;;;;4.78;1.23;;;10.30;99.90;;;;;;4951355;28;20118;-79
2022/11/22 13:04:46;;;;;;;6.65;1.00;;;10.40;99.90;;;;;;4948663;28;20047;-78
2022/11/22 13:07:17;;;;;;;3.25;1.10;;;10.40;99.90;;;;;;4950005;28;20570;-78
2022/11/22 13:09:50;;;;;;;3.63;1.05;;;10.60;99.90;;;;;;4955107;28;20061;-78
2022/11/22 13:12:22;;;;;;;3.78;1.20;;;10.40;99.90;;;;;;4944297;28;20062;-79
2022/11/22 13:14:53;;;;;;;4.32;1.10;;;10.40;99.90;;;;;;4949835;28;20071;-78
2022/11/22 13:17:22;;;;;;;7.10;1.20;;;10.40;99.90;;;;;;4950986;28;21758;-78
2022/11/22 13:19:51;;;;;;;4.10;1.17;;;10.50;99.90;;;;;;4947763;28;20047;-78
2022/11/22 13:22:27;;;;;;;3.55;0.82;;;10.50;99.90;;;;;;4952065;28;20130;-77
2022/11/22 13:25:08;;;;;;;4.68;1.17;;;10.50;99.90;;;;;;4950716;29;20047;-77
2022/11/22 13:27:37;;;;;;;8.32;1.30;;;10.50;99.90;;;;;;4953472;29;20055;-77